createdAt,value
2022-11-18T00:01:11.856Z,1.83
2022-11-18T00:03:40.198Z,2.28
2022-11-18T00:06:10.867Z,2.75
2022-11-18T00:08:38.512Z,2.25
2022-11-18T00:11:33.858Z,1.80
2022-11-18T00:14:19.464Z,2.20
2022-11-18T00:16:48.022Z,1.63
2022-11-18T00:19:16.285Z,20.45
2022-11-18T00:21:44.006Z,3.75
2022-11-18T00:24:11.711Z,2.05
2022-11-18T00:26:39.302Z,2.30
2022-11-18T00:29:06.949Z,1.77
2022-11-18T00:31:35.093Z,2.28
2022-11-18T00:34:02.676Z,2.13
2022-11-18T00:36:30.475Z,1.80
2022-11-18T00:38:58.195Z,1.65
2022-11-18T00:41:45.704Z,1.88
2022-11-18T00:44:13.276Z,1.70
2022-11-18T00:46:40.873Z,1.63
2022-11-18T00:49:08.977Z,1.38
2022-11-18T00:51:36.970Z,1.63
2022-11-18T00:54:05.063Z,1.60
2022-11-18T00:56:32.928Z,1.90
2022-11-18T00:59:00.699Z,1.73
2022-11-18T01:01:28.356Z,1.80
2022-11-18T01:03:56.008Z,1.75
2022-11-18T01:06:23.696Z,1.88
2022-11-18T01:08:51.565Z,1.33
2022-11-18T01:11:37.610Z,1.60
2022-11-18T01:14:05.119Z,1.60
2022-11-18T01:16:32.590Z,1.60
2022-11-18T01:19:00.131Z,1.42
2022-11-18T01:21:29.419Z,1.65
2022-11-18T01:23:56.978Z,1.30
2022-11-18T01:26:24.590Z,1.33
2022-11-18T01:28:56.518Z,1.52
2022-11-18T01:31:24.069Z,1.40
2022-11-18T01:33:52.339Z,1.10
2022-11-18T01:36:22.248Z,0.98
2022-11-18T01:38:50.633Z,1.35
2022-11-18T01:41:20.081Z,1.50
2022-11-18T01:43:59.681Z,1.38
2022-11-18T01:46:33.612Z,1.30
2022-11-18T01:49:09.501Z,1.42
2022-11-18T01:54:12.727Z,1.45
2022-11-18T01:56:45.021Z,1.20
2022-11-18T01:59:18.451Z,0.98
2022-11-18T02:01:47.206Z,1.30
2022-11-18T02:04:14.943Z,1.13
2022-11-18T02:06:45.822Z,1.23
2022-11-18T02:09:16.321Z,1.15
2022-11-18T02:11:56.653Z,1.13
2022-11-18T02:14:24.236Z,1.05
2022-11-18T02:17:05.533Z,1.30
2022-11-18T02:20:06.401Z,0.70
2022-11-18T02:22:52.025Z,0.98
2022-11-18T02:25:31.676Z,1.00
2022-11-18T02:28:21.264Z,1.20
2022-11-18T02:31:03.657Z,0.90
2022-11-18T02:33:43.174Z,1.00
2022-11-18T02:36:21.609Z,0.93
2022-11-18T02:38:53.920Z,1.13
2022-11-18T02:41:28.995Z,0.93
2022-11-18T02:44:08.176Z,0.90
2022-11-18T02:46:39.416Z,1.35
2022-11-18T02:49:12.724Z,0.50
2022-11-18T02:51:43.218Z,1.00
2022-11-18T02:54:12.131Z,1.23
2022-11-18T02:56:40.595Z,0.85
2022-11-18T02:59:08.116Z,0.85
2022-11-18T03:01:36.403Z,1.60
2022-11-18T03:04:04.372Z,0.77
2022-11-18T03:06:38.782Z,1.30
2022-11-18T03:09:28.361Z,1.10
2022-11-18T03:12:28.084Z,1.00
2022-11-18T03:15:04.618Z,1.20
2022-11-18T03:18:09.769Z,1.13
2022-11-18T03:20:59.625Z,1.13
2022-11-18T03:23:41.635Z,1.15
2022-11-18T03:26:18.920Z,1.70
2022-11-18T03:28:52.258Z,1.92
2022-11-18T03:31:40.434Z,1.73
2022-11-18T03:34:22.103Z,1.10
2022-11-18T03:36:57.168Z,0.90
2022-11-18T03:39:31.885Z,0.85
2022-11-18T03:42:23.594Z,1.35
2022-11-18T03:44:56.461Z,1.00
2022-11-18T03:47:32.370Z,1.52
2022-11-18T03:52:33.557Z,1.20
2022-11-18T03:55:09.188Z,1.00
2022-11-18T03:57:50.908Z,0.93
2022-11-18T04:00:20.288Z,1.23
2022-11-18T04:02:50.201Z,1.05
2022-11-18T04:05:19.439Z,1.02
2022-11-18T04:07:52.837Z,0.90
2022-11-18T04:10:39.067Z,1.40
2022-11-18T04:13:20.186Z,1.63
2022-11-18T04:15:48.106Z,1.30
2022-11-18T04:18:15.594Z,1.17
2022-11-18T04:20:43.121Z,1.80
2022-11-18T04:23:10.683Z,1.42
2022-11-18T04:25:38.663Z,1.20
2022-11-18T04:28:06.495Z,1.35
2022-11-18T04:30:34.349Z,1.35
2022-11-18T04:33:01.937Z,1.40
2022-11-18T04:35:29.479Z,1.20
2022-11-18T04:37:56.954Z,1.40
2022-11-18T04:40:24.504Z,1.60
2022-11-18T04:42:52.078Z,1.63
2022-11-18T04:45:19.567Z,1.83
2022-11-18T04:47:47.074Z,1.52
2022-11-18T04:50:14.580Z,1.73
2022-11-18T04:52:42.270Z,1.55
2022-11-18T04:55:09.774Z,1.25
2022-11-18T04:57:37.251Z,1.63
2022-11-18T05:00:05.513Z,1.30
2022-11-18T05:02:33.081Z,1.60
2022-11-18T05:05:00.766Z,1.70
2022-11-18T05:07:28.344Z,4.10
2022-11-18T05:09:55.900Z,10.25
2022-11-18T05:12:42.004Z,1.50
2022-11-18T05:15:09.604Z,1.50
2022-11-18T05:17:37.124Z,1.88
2022-11-18T05:20:05.084Z,2.38
2022-11-18T05:22:32.551Z,2.10
2022-11-18T05:25:00.170Z,1.73
2022-11-18T05:27:27.795Z,1.73
2022-11-18T05:29:55.324Z,1.85
2022-11-18T05:32:22.946Z,1.92
2022-11-18T05:34:50.740Z,4.13
2022-11-18T05:37:18.317Z,2.30
2022-11-18T05:39:45.786Z,2.25
2022-11-18T05:42:31.697Z,2.42
2022-11-18T05:44:59.287Z,2.03
2022-11-18T05:47:27.359Z,2.05
2022-11-18T05:49:54.911Z,2.45
2022-11-18T05:52:22.410Z,1.90
2022-11-18T05:54:51.186Z,3.08
2022-11-18T05:57:18.808Z,1.90
2022-11-18T05:59:46.301Z,1.80
2022-11-18T06:02:21.165Z,1.90
2022-11-18T06:04:57.189Z,1.70
2022-11-18T06:10:03.532Z,1.65
2022-11-18T06:12:39.988Z,1.80
2022-11-18T06:15:15.982Z,1.63
2022-11-18T06:20:13.765Z,1.60
2022-11-18T06:22:46.364Z,1.90
2022-11-18T06:25:14.791Z,1.83
2022-11-18T06:27:43.425Z,1.70
2022-11-18T06:30:11.641Z,1.75
2022-11-18T06:32:39.156Z,2.30
2022-11-18T06:35:07.865Z,1.50
2022-11-18T06:37:35.419Z,1.40
2022-11-18T06:40:03.820Z,2.22
2022-11-18T06:42:49.794Z,3.47
2022-11-18T06:45:17.541Z,1.77
2022-11-18T06:47:45.135Z,1.80
2022-11-18T06:50:12.705Z,1.98
2022-11-18T06:52:40.271Z,2.05
2022-11-18T06:55:08.439Z,1.98
2022-11-18T06:57:35.949Z,2.35
2022-11-18T07:00:04.375Z,2.40
2022-11-18T07:02:31.928Z,2.40
2022-11-18T07:04:59.420Z,2.92
2022-11-18T07:07:27.150Z,1.90
2022-11-18T07:09:54.692Z,2.50
2022-11-18T07:12:22.262Z,2.10
2022-11-18T07:14:49.766Z,2.30
2022-11-18T07:17:17.246Z,2.53
2022-11-18T07:19:44.746Z,2.30
2022-11-18T07:22:12.306Z,2.05
2022-11-18T07:24:40.890Z,2.20
2022-11-18T07:27:08.385Z,2.33
2022-11-18T07:29:36.072Z,3.50
2022-11-18T07:32:03.615Z,7.65
2022-11-18T07:34:31.281Z,4.75
2022-11-18T07:36:58.789Z,3.90
2022-11-18T07:39:26.324Z,2.85
2022-11-18T07:41:53.873Z,3.22
2022-11-18T07:44:21.402Z,2.17
2022-11-18T07:46:48.907Z,2.95
2022-11-18T07:49:16.756Z,6.15
2022-11-18T07:51:44.650Z,4.43
2022-11-18T07:54:14.084Z,3.47
2022-11-18T07:56:41.665Z,2.45
2022-11-18T07:59:09.439Z,2.42
2022-11-18T08:01:37.032Z,3.00
2022-11-18T08:04:10.369Z,9.10
2022-11-18T08:06:38.632Z,24.05
2022-11-18T08:09:07.668Z,13.02
2022-11-18T08:11:35.705Z,11.68
2022-11-18T08:14:03.935Z,12.32
2022-11-18T08:16:31.649Z,3.67
2022-11-18T08:19:00.793Z,2.70
2022-11-18T08:21:28.441Z,1.95
2022-11-18T08:23:57.709Z,2.13
2022-11-18T08:26:25.899Z,2.10
2022-11-18T08:28:53.840Z,2.00
2022-11-18T08:31:26.800Z,2.30
2022-11-18T08:33:58.811Z,2.50
2022-11-18T08:36:31.753Z,2.85
2022-11-18T08:39:01.202Z,2.70
2022-11-18T08:41:32.914Z,2.08
2022-11-18T08:44:01.846Z,2.30
2022-11-18T08:46:29.849Z,3.05
2022-11-18T08:48:58.230Z,2.83
2022-11-18T08:51:26.334Z,2.80
2022-11-18T08:53:53.926Z,2.65
2022-11-18T08:56:23.154Z,2.40
2022-11-18T08:58:51.329Z,2.00
2022-11-18T09:01:19.170Z,3.83
2022-11-18T09:03:48.368Z,2.97
2022-11-18T09:06:19.567Z,3.55
2022-11-18T09:08:47.571Z,3.78
2022-11-18T09:11:26.857Z,2.88
2022-11-18T09:16:44.200Z,4.32
2022-11-18T09:21:59.860Z,2.40
2022-11-18T09:24:27.383Z,3.13
2022-11-18T09:26:54.980Z,2.53
2022-11-18T09:29:28.483Z,3.20
2022-11-18T09:31:56.150Z,3.90
2022-11-18T09:34:23.726Z,6.53
2022-11-18T09:36:55.779Z,3.17
2022-11-18T09:39:26.592Z,5.25
2022-11-18T09:42:02.277Z,4.65
2022-11-18T09:44:41.476Z,2.10
2022-11-18T09:47:26.335Z,2.58
2022-11-18T09:50:20.342Z,1.90
2022-11-18T09:53:00.354Z,1.63
2022-11-18T09:55:29.514Z,1.70
2022-11-18T09:57:59.440Z,1.33
2022-11-18T10:00:33.150Z,1.77
2022-11-18T10:03:02.364Z,1.38
2022-11-18T10:05:45.315Z,2.03
2022-11-18T10:08:27.524Z,2.08
2022-11-18T10:11:10.834Z,1.60
2022-11-18T10:13:54.116Z,1.73
2022-11-18T10:16:36.269Z,1.40
2022-11-18T10:19:25.478Z,1.20
2022-11-18T10:22:01.037Z,1.30
2022-11-18T10:24:35.797Z,1.65
2022-11-18T10:27:11.723Z,1.40
2022-11-18T10:29:39.502Z,1.73
2022-11-18T10:32:11.545Z,3.05
2022-11-18T10:34:51.574Z,2.08
2022-11-18T10:38:07.506Z,2.50
2022-11-18T10:40:28.006Z,1.80
2022-11-18T10:42:55.619Z,2.30
2022-11-18T10:45:23.052Z,2.03
2022-11-18T10:48:09.384Z,1.67
2022-11-18T10:53:25.936Z,1.58
2022-11-18T10:56:00.475Z,1.80
2022-11-18T10:58:31.569Z,1.50
2022-11-18T11:01:24.954Z,1.80
2022-11-18T11:04:23.234Z,1.88
2022-11-18T11:06:50.813Z,1.90
2022-11-18T11:09:24.269Z,1.67
2022-11-18T11:11:59.588Z,1.77
2022-11-18T11:14:30.272Z,1.60
2022-11-18T11:17:19.938Z,1.20
2022-11-18T11:19:49.136Z,1.52
2022-11-18T11:22:17.080Z,1.60
2022-11-18T11:24:44.681Z,2.88
2022-11-18T11:30:21.886Z,0.68
2022-11-18T11:32:54.907Z,1.20
2022-11-18T11:35:42.664Z,1.45
2022-11-18T11:38:15.764Z,1.20
2022-11-18T11:41:06.012Z,1.23
2022-11-18T11:43:43.585Z,0.30
2022-11-18T11:46:42.020Z,0.20
2022-11-18T11:49:36.858Z,0.10
2022-11-18T11:52:15.295Z,0.17
2022-11-18T11:55:01.028Z,0.10
2022-11-18T11:57:46.484Z,0.30
2022-11-18T12:00:16.987Z,0.10
2022-11-18T12:03:04.432Z,0.10
2022-11-18T12:05:39.394Z,0.10
2022-11-18T12:08:14.121Z,0.10
2022-11-18T12:11:07.311Z,0.32
2022-11-18T12:13:57.972Z,0.10
2022-11-18T12:16:42.894Z,0.30
2022-11-18T12:19:16.847Z,0.20
2022-11-18T12:21:45.345Z,0.10
2022-11-18T12:24:37.360Z,0.10
2022-11-18T12:27:09.227Z,0.10
2022-11-18T12:29:48.822Z,0.10
2022-11-18T12:32:29.820Z,0.10
2022-11-18T12:35:02.219Z,0.30
2022-11-18T12:37:29.675Z,0.28
2022-11-18T12:40:00.114Z,0.20
2022-11-18T12:42:54.461Z,0.30
2022-11-18T12:45:40.174Z,0.17
2022-11-18T12:48:29.591Z,0.15
2022-11-18T12:51:18.740Z,0.10
2022-11-18T12:53:50.501Z,0.10
2022-11-18T12:56:17.972Z,0.10
2022-11-18T12:58:47.453Z,0.20
2022-11-18T13:01:19.255Z,0.10
2022-11-18T13:03:46.999Z,0.00
2022-11-18T13:06:26.823Z,0.10
2022-11-18T13:09:02.856Z,0.10
2022-11-18T13:11:45.806Z,0.08
2022-11-18T13:14:57.888Z,0.05
2022-11-18T13:17:50.025Z,0.10
2022-11-18T13:20:35.658Z,0.10
2022-11-18T13:23:33.753Z,0.15
2022-11-18T13:26:21.163Z,0.10
2022-11-18T13:29:20.698Z,0.13
2022-11-18T13:32:04.113Z,0.30
2022-11-18T13:34:32.537Z,0.35
2022-11-18T13:37:03.324Z,0.00
2022-11-18T13:39:32.899Z,0.80
2022-11-18T13:42:07.760Z,0.60
2022-11-18T13:44:37.866Z,0.50
2022-11-18T13:47:16.232Z,0.80
2022-11-18T13:50:08.004Z,0.30
2022-11-18T13:52:39.544Z,0.40
2022-11-18T13:55:19.939Z,0.63
2022-11-18T13:57:50.817Z,0.80
2022-11-18T14:00:25.563Z,0.20
2022-11-18T14:03:00.688Z,0.47
2022-11-18T14:05:28.718Z,0.10
2022-11-18T14:08:00.300Z,0.15
2022-11-18T14:10:39.081Z,0.20
2022-11-18T14:13:23.824Z,0.20
2022-11-18T14:15:52.606Z,0.20
2022-11-18T14:18:31.535Z,0.10
2022-11-18T14:21:00.000Z,0.00
2022-11-18T14:23:33.907Z,0.40
2022-11-18T14:26:04.998Z,0.10
2022-11-18T14:28:36.980Z,0.45
2022-11-18T14:31:33.826Z,0.25
2022-11-18T14:36:41.173Z,0.20
2022-11-18T14:39:31.016Z,0.70
2022-11-18T14:41:59.428Z,0.60
2022-11-18T14:44:28.540Z,0.50
2022-11-18T14:47:02.616Z,0.40
2022-11-18T14:49:32.823Z,0.30
2022-11-18T14:52:05.385Z,0.40
2022-11-18T14:54:33.865Z,0.20
2022-11-18T14:57:06.192Z,0.32
2022-11-18T14:59:33.831Z,0.90
2022-11-18T15:02:01.555Z,0.30
2022-11-18T15:04:29.253Z,0.60
2022-11-18T15:07:00.181Z,0.50
2022-11-18T15:09:34.989Z,2.38
2022-11-18T15:12:05.395Z,1.27
2022-11-18T15:14:33.022Z,0.50
2022-11-18T15:17:00.526Z,0.20
2022-11-18T15:19:28.313Z,0.30
2022-11-18T15:21:56.160Z,0.40
2022-11-18T15:24:23.869Z,0.52
2022-11-18T15:26:51.317Z,0.75
2022-11-18T15:29:20.999Z,0.40
2022-11-18T15:31:48.991Z,0.30
2022-11-18T15:34:18.362Z,0.60
2022-11-18T15:36:46.602Z,0.60
2022-11-18T15:39:14.307Z,0.60
2022-11-18T15:41:43.062Z,0.60
2022-11-18T15:44:11.824Z,0.73
2022-11-18T15:46:39.959Z,1.00
2022-11-18T15:49:10.839Z,0.73
2022-11-18T15:51:40.329Z,1.15
2022-11-18T15:54:08.863Z,0.90
2022-11-18T15:56:37.303Z,0.80
2022-11-18T15:59:06.003Z,1.17
2022-11-18T16:01:37.293Z,0.95
2022-11-18T16:04:10.931Z,1.10
2022-11-18T16:06:39.609Z,0.80
2022-11-18T16:09:09.027Z,8.68
2022-11-18T16:11:59.821Z,3.85
2022-11-18T16:14:29.089Z,4.97
2022-11-18T16:17:11.152Z,5.75
2022-11-18T16:19:38.652Z,4.03
2022-11-18T16:22:06.611Z,4.68
2022-11-18T16:24:34.244Z,8.52
2022-11-18T16:27:04.580Z,2.20
2022-11-18T16:29:32.428Z,0.82
2022-11-18T16:31:59.992Z,1.20
2022-11-18T16:34:28.471Z,1.10
2022-11-18T16:36:57.933Z,0.90
2022-11-18T16:39:27.748Z,1.13
2022-11-18T16:42:02.244Z,0.80
2022-11-18T16:44:35.087Z,0.60
2022-11-18T16:47:07.795Z,1.45
2022-11-18T16:49:40.352Z,1.00
2022-11-18T16:52:08.902Z,1.13
2022-11-18T16:54:41.019Z,0.50
2022-11-18T16:57:12.381Z,0.80
2022-11-18T16:59:39.870Z,0.82
2022-11-18T17:02:07.781Z,0.50
2022-11-18T17:04:37.172Z,0.60
2022-11-18T17:07:05.532Z,0.95
2022-11-18T17:09:33.103Z,0.90
2022-11-18T17:12:00.728Z,1.10
2022-11-18T17:14:29.864Z,0.60
2022-11-18T17:16:57.873Z,0.63
2022-11-18T17:19:28.600Z,0.40
2022-11-18T17:21:56.119Z,0.40
2022-11-18T17:24:24.393Z,0.32
2022-11-18T17:26:52.440Z,0.45
2022-11-18T17:29:20.849Z,0.45
2022-11-18T17:31:48.618Z,0.30
2022-11-18T17:34:16.580Z,0.90
2022-11-18T17:36:46.375Z,0.55
2022-11-18T17:39:14.017Z,0.60
2022-11-18T17:42:00.085Z,1.10
2022-11-18T17:44:28.360Z,0.93
2022-11-18T17:46:56.057Z,0.40
2022-11-18T17:49:23.773Z,0.90
2022-11-18T17:51:51.846Z,0.40
2022-11-18T17:54:20.859Z,0.30
2022-11-18T17:56:52.207Z,0.38
2022-11-18T17:59:20.944Z,0.13
2022-11-18T18:01:52.859Z,0.20
2022-11-18T18:04:23.267Z,0.98
2022-11-18T18:06:52.801Z,0.30
2022-11-18T18:09:28.471Z,0.43
2022-11-18T18:11:58.630Z,0.60
2022-11-18T18:14:26.105Z,0.55
2022-11-18T18:16:53.989Z,0.40
2022-11-18T18:19:23.063Z,0.20
2022-11-18T18:21:50.677Z,0.30
2022-11-18T18:24:20.830Z,0.60
2022-11-18T18:26:49.200Z,0.47
2022-11-18T18:29:16.712Z,0.60
2022-11-18T18:31:44.183Z,1.23
2022-11-18T18:34:11.833Z,0.60
2022-11-18T18:36:41.568Z,0.50
2022-11-18T18:39:09.606Z,0.25
2022-11-18T18:41:38.455Z,0.30
2022-11-18T18:44:07.153Z,0.50
2022-11-18T18:46:36.694Z,0.40
2022-11-18T18:49:13.405Z,2.88
2022-11-18T18:51:43.632Z,1.85
2022-11-18T18:54:13.581Z,1.83
2022-11-18T18:56:41.761Z,0.93
2022-11-18T18:59:10.597Z,0.63
2022-11-18T19:01:39.070Z,1.15
2022-11-18T19:04:07.925Z,0.50
2022-11-18T19:09:26.024Z,0.40
2022-11-18T19:12:12.830Z,1.30
2022-11-18T19:14:40.472Z,1.70
2022-11-18T19:17:11.660Z,3.10
2022-11-18T19:19:59.237Z,4.78
2022-11-18T19:22:30.481Z,1.60
2022-11-18T19:24:59.307Z,4.03
2022-11-18T19:27:27.223Z,1.30
2022-11-18T19:29:54.773Z,2.28
2022-11-18T19:32:22.391Z,2.70
2022-11-18T19:34:49.864Z,2.85
2022-11-18T19:37:17.400Z,2.20
2022-11-18T19:39:44.875Z,2.30
2022-11-18T19:42:12.428Z,2.50
2022-11-18T19:44:40.026Z,2.25
2022-11-18T19:47:07.475Z,2.28
2022-11-18T19:49:35.060Z,2.25
2022-11-18T19:52:02.728Z,2.60
2022-11-18T19:54:30.444Z,2.08
2022-11-18T19:56:57.954Z,1.98
2022-11-18T19:59:25.559Z,3.30
2022-11-18T20:01:53.148Z,2.50
2022-11-18T20:04:20.655Z,4.30
2022-11-18T20:06:48.298Z,3.60
2022-11-18T20:09:16.494Z,3.80
2022-11-18T20:11:45.033Z,3.03
2022-11-18T20:14:12.977Z,1.40
2022-11-18T20:16:41.098Z,1.70
2022-11-18T20:19:13.400Z,1.50
2022-11-18T20:21:43.427Z,1.40
2022-11-18T20:24:16.812Z,1.20
2022-11-18T20:26:44.954Z,1.35
2022-11-18T20:29:12.904Z,1.40
2022-11-18T20:31:41.029Z,0.95
2022-11-18T20:34:12.813Z,1.40
2022-11-18T20:36:40.693Z,1.10
2022-11-18T20:39:13.643Z,1.30
2022-11-18T20:41:41.274Z,1.23
2022-11-18T20:44:08.798Z,1.23
2022-11-18T20:46:36.296Z,1.00
2022-11-18T20:49:03.776Z,1.17
2022-11-18T20:51:32.189Z,2.40
2022-11-18T20:54:00.514Z,2.70
2022-11-18T20:56:28.451Z,2.80
2022-11-18T20:58:59.093Z,4.00
2022-11-18T21:01:29.381Z,1.17
2022-11-18T21:04:01.534Z,1.23
2022-11-18T21:06:31.351Z,1.40
2022-11-18T21:09:01.025Z,1.40
2022-11-18T21:11:28.993Z,0.98
2022-11-18T21:14:18.559Z,1.45
2022-11-18T21:16:49.468Z,1.00
2022-11-18T21:19:17.200Z,1.58
2022-11-18T21:21:44.747Z,1.85
2022-11-18T21:24:14.556Z,1.52
2022-11-18T21:26:42.936Z,2.13
2022-11-18T21:29:12.320Z,1.55
2022-11-18T21:31:40.005Z,1.90
2022-11-18T21:34:08.369Z,1.77
2022-11-18T21:36:39.995Z,2.30
2022-11-18T21:39:11.305Z,2.00
2022-11-18T21:41:39.304Z,1.77
2022-11-18T21:44:12.038Z,1.40
2022-11-18T21:46:40.951Z,1.20
2022-11-18T21:49:08.913Z,1.20
2022-11-18T21:51:37.834Z,1.55
2022-11-18T21:54:05.560Z,1.60
2022-11-18T21:56:33.234Z,0.77
2022-11-18T21:59:02.043Z,1.10
2022-11-18T22:01:33.524Z,1.10
2022-11-18T22:04:03.292Z,1.10
2022-11-18T22:06:33.764Z,0.85
2022-11-18T22:09:03.306Z,0.70
2022-11-18T22:11:30.924Z,1.33
2022-11-18T22:13:58.640Z,1.13
2022-11-18T22:16:26.914Z,2.03
2022-11-18T22:19:01.393Z,1.40
2022-11-18T22:21:31.335Z,1.63
2022-11-18T22:24:00.717Z,1.27
2022-11-18T22:26:28.997Z,0.68
2022-11-18T22:28:58.018Z,0.75
2022-11-18T22:31:27.443Z,1.00
2022-11-18T22:33:55.942Z,1.00
2022-11-18T22:36:25.598Z,1.15
2022-11-18T22:38:54.108Z,0.80
2022-11-18T22:41:42.582Z,1.00
2022-11-18T22:44:11.286Z,0.57
2022-11-18T22:46:40.125Z,0.68
2022-11-18T22:49:08.783Z,0.55
2022-11-18T22:51:37.649Z,0.50
2022-11-18T22:56:54.527Z,0.60
2022-11-18T22:59:22.550Z,0.45
2022-11-18T23:01:53.845Z,0.55
2022-11-18T23:04:21.347Z,0.50
2022-11-18T23:06:51.624Z,0.60
2022-11-18T23:09:19.460Z,0.30
2022-11-18T23:12:05.730Z,0.38
2022-11-18T23:14:33.371Z,0.63
2022-11-18T23:17:00.967Z,0.32
2022-11-18T23:19:28.455Z,0.70
2022-11-18T23:22:08.816Z,0.77
2022-11-18T23:24:36.460Z,1.02
2022-11-18T23:27:03.961Z,1.58
2022-11-18T23:29:31.475Z,2.22
2022-11-18T23:31:58.940Z,1.63
2022-11-18T23:34:26.428Z,2.13
2022-11-18T23:36:53.986Z,1.80
2022-11-18T23:39:21.854Z,1.52
2022-11-18T23:41:49.586Z,1.52
2022-11-18T23:44:17.071Z,1.60
2022-11-18T23:46:44.554Z,1.50
2022-11-18T23:49:12.607Z,1.20
2022-11-18T23:51:41.349Z,0.90
2022-11-18T23:54:09.168Z,0.90
2022-11-18T23:56:38.273Z,1.63
2022-11-18T23:59:06.789Z,1.42
